Celtic Spirit — MSGH4 — position and weather

sailwx.info

Track history (hours):
 
Tides and Currents Weather Stations Pressure Air Temp Water Temp Dewpoint Dewpoint Depression Visibility Wind Speed Wind Dir Waves Ship Positions

Celtic Spirit

Last reported at 2018-Jun-04 21:13 UTC. Time now 2018-Jun-19 23:49 UTC.
Position N 37°50' W 024°12'.
Warning: this ship's position is 15 days out of date.

Length 20 m.

Type: Pleasure craft. MMSI: 235010910.

Date/timePositionNaut miles runAvg speedWind from/ knotsBaromVisibWave heightAir tempDewpointWater temp
2018-Jun-04 21:13N 37°50' W 024°12'2 7.5
2018-Jun-04 20:58N 37°49' W 024°14'4 7.5
2018-Jun-04 20:28N 37°48' W 024°19'4 7.5
2018-Jun-04 20:00N 37°48' W 024°23'4 7.9
2018-Jun-04 19:30N 37°48' W 024°28'4 8.1
2018-Jun-04 19:00N 37°47' W 024°33'4 8.7
2018-Jun-04 18:31N 37°47' W 024°38'4 8.7
2018-Jun-04 18:00N 37°46' W 024°44'4 8.5
2018-Jun-04 17:30N 37°45' W 024°49'4 8.5
2018-Jun-04 17:00N 37°44' W 024°54'4 8.5
2018-Jun-04 16:30N 37°43' W 024°60'4 7.9
2018-Jun-04 16:00N 37°43' W 025°05'4 7.9
2018-Jun-04 15:30N 37°42' W 025°10'4 8.0
2018-Jun-04 15:00N 37°42' W 025°15'4 7.9
2018-Jun-04 14:30N 37°42' W 025°20'4 8.1
2018-Jun-04 14:00N 37°41' W 025°25'4 7.9
2018-Jun-04 13:30N 37°41' W 025°30'4 7.5
2018-Jun-04 13:01N 37°43' W 025°34'3 6.1
2018-Jun-04 12:30N 37°44' W 025°38'2 3.2
2018-Jun-04 11:59N 37°44' W 025°40'0 0.0
2018-Jun-04 11:29N 37°44' W 025°40'0 0.0
2018-Jun-04 10:59N 37°44' W 025°40'0 0.0
2018-Jun-04 10:29N 37°44' W 025°40'0 0.0
2018-Jun-04 09:59N 37°44' W 025°40'0 0.0
2018-Jun-04 09:29N 37°44' W 025°40'0 0.0
2018-Jun-04 08:59N 37°44' W 025°40'0 0.0
2018-Jun-04 08:29N 37°44' W 025°40'0 0.0
2018-Jun-04 07:59N 37°44' W 025°40'0 0.0
2018-Jun-04 07:29N 37°44' W 025°40'0 0.0
2018-Jun-04 06:59N 37°44' W 025°40'0 0.0
2018-Jun-04 06:29N 37°44' W 025°40'0 0.0
2018-Jun-04 05:53N 37°44' W 025°40'0 0.0
2018-Jun-04 05:29N 37°44' W 025°40'0 0.0
2018-Jun-04 04:59N 37°44' W 025°40'0 0.0
2018-Jun-04 04:29N 37°44' W 025°40'0 0.0
2018-Jun-04 03:59N 37°44' W 025°40'0 0.0
2018-Jun-04 03:29N 37°44' W 025°40'0 0.0
2018-Jun-04 02:59N 37°44' W 025°40'0 0.0
2018-Jun-04 02:29N 37°44' W 025°40'0 0.0
2018-Jun-04 01:59N 37°44' W 025°40'0 0.0
2018-Jun-04 01:29N 37°44' W 025°40'0 0.0
2018-Jun-04 00:59N 37°44' W 025°40'0 0.0
2018-Jun-04 00:29N 37°44' W 025°40'0 0.0
2018-Jun-03 23:59N 37°44' W 025°40'0 0.0
2018-Jun-03 23:29N 37°44' W 025°40'0 0.0
2018-Jun-03 22:59N 37°44' W 025°40'0 0.0
2018-Jun-03 22:29N 37°44' W 025°40'0 0.0
2018-Jun-03 21:59N 37°44' W 025°40'0 0.0
2018-Jun-03 21:29N 37°44' W 025°40'0 0.0
2018-Jun-03 20:59N 37°44' W 025°40'0 0.0
2018-Jun-03 20:29N 37°44' W 025°40'0 0.0
2018-Jun-03 19:59N 37°44' W 025°40'0 0.0
2018-Jun-03 19:29N 37°44' W 025°40'0 0.0
2018-Jun-03 18:59N 37°44' W 025°40'0 0.0
2018-Jun-03 18:29N 37°44' W 025°40'0 0.0
2018-Jun-03 17:59N 37°44' W 025°40'0 0.0
2018-Jun-03 17:29N 37°44' W 025°40'0 0.0
2018-Jun-03 16:59N 37°44' W 025°40'0 0.0
2018-Jun-03 16:29N 37°44' W 025°40'0 0.0
2018-Jun-03 15:59N 37°44' W 025°40'0 0.0
2018-Jun-03 15:29N 37°44' W 025°40'0 0.0
2018-Jun-03 14:59N 37°44' W 025°40'0 0.0
2018-Jun-03 14:29N 37°44' W 025°40'0 0.0
2018-Jun-03 13:59N 37°44' W 025°40'0 0.0
2018-Jun-03 13:29N 37°44' W 025°40'0 0.0
2018-Jun-03 12:59N 37°44' W 025°40'0 0.0
2018-Jun-03 12:29N 37°44' W 025°40'0 0.0
2018-Jun-03 11:59N 37°44' W 025°40'0 0.0
2018-Jun-03 11:29N 37°44' W 025°40'0 0.0
2018-Jun-03 10:59N 37°44' W 025°40'0 0.0
2018-Jun-03 10:29N 37°44' W 025°40'0 0.0
2018-Jun-03 09:59N 37°44' W 025°40'0 0.0
2018-Jun-03 09:29N 37°44' W 025°40'0 0.0
2018-Jun-03 08:59N 37°44' W 025°40'0 0.0
2018-Jun-03 08:29N 37°44' W 025°40'0 0.0
2018-Jun-03 07:59N 37°44' W 025°40'0 0.0
2018-Jun-03 07:29N 37°44' W 025°40'0 0.0
2018-Jun-03 06:59N 37°44' W 025°40'0 0.0
2018-Jun-03 06:29N 37°44' W 025°40'0 0.0
2018-Jun-03 05:59N 37°44' W 025°40'0 0.0
2018-Jun-03 05:29N 37°44' W 025°40'0 0.0
2018-Jun-03 04:56N 37°44' W 025°40'0 0.0
2018-Jun-03 04:29N 37°44' W 025°40'0 0.0
2018-Jun-03 03:59N 37°44' W 025°40'0 0.0
2018-Jun-03 03:29N 37°44' W 025°40'0 0.0
2018-Jun-03 02:59N 37°44' W 025°40'0 0.0
2018-Jun-03 02:29N 37°44' W 025°40'0 0.0
2018-Jun-03 01:59N 37°44' W 025°40'0 0.0
2018-Jun-03 01:29N 37°44' W 025°40'0 0.0
2018-Jun-03 00:59N 37°44' W 025°40'0 0.0
2018-Jun-03 00:29N 37°44' W 025°40'0 0.0
2018-Jun-02 23:59N 37°44' W 025°40'0 0.0
2018-Jun-02 23:29N 37°44' W 025°40'0 0.0
2018-Jun-02 22:59N 37°44' W 025°40'0 0.0
2018-Jun-02 22:29N 37°44' W 025°40'0 0.0
2018-Jun-02 21:59N 37°44' W 025°40'0 0.0
2018-Jun-02 21:29N 37°44' W 025°40'0 0.0
2018-Jun-02 20:59N 37°44' W 025°40'0 0.0
2018-Jun-02 20:29N 37°44' W 025°40'0 0.0
2018-Jun-02 19:59N 37°44' W 025°40'0 0.0
2018-Jun-02 19:29N 37°44' W 025°40'0 0.0
2018-Jun-02 18:59N 37°44' W 025°40'0 0.0
2018-Jun-02 18:29N 37°44' W 025°40'0 0.0
2018-Jun-02 17:59N 37°44' W 025°40'0 0.0
2018-Jun-02 17:29N 37°44' W 025°40'0 0.0
2018-Jun-02 16:59N 37°44' W 025°40'0 0.0
2018-Jun-02 16:29N 37°44' W 025°40'0 0.0
2018-Jun-02 15:59N 37°44' W 025°40'0 0.0
2018-Jun-02 15:29N 37°44' W 025°40'0 0.0
2018-Jun-02 14:59N 37°44' W 025°40'0 0.0
2018-Jun-02 14:29N 37°44' W 025°40'0 0.0
2018-Jun-02 13:59N 37°44' W 025°40'0 0.0
2018-Jun-02 13:29N 37°44' W 025°40'0 0.0
2018-Jun-02 12:59N 37°44' W 025°40'0 0.0
2018-Jun-02 12:29N 37°44' W 025°40'0 0.0
2018-Jun-02 11:59N 37°44' W 025°40'0 0.0
2018-Jun-02 11:29N 37°44' W 025°40'0 0.0
2018-Jun-02 10:59N 37°44' W 025°40'0 0.0
2018-Jun-02 10:29N 37°44' W 025°40'0 0.0
2018-Jun-02 09:59N 37°44' W 025°40'0 0.0
2018-Jun-02 09:29N 37°44' W 025°40'0 0.0
2018-Jun-02 08:59N 37°44' W 025°40'0 0.0
2018-Jun-02 08:29N 37°44' W 025°40'0 0.0
2018-Jun-02 07:59N 37°44' W 025°40'0 0.0
2018-Jun-02 07:29N 37°44' W 025°40'0 0.0
2018-Jun-02 06:59N 37°44' W 025°40'0 0.0
2018-Jun-02 06:29N 37°44' W 025°40'0 0.0
2018-Jun-02 05:59N 37°44' W 025°40'0 0.0
2018-Jun-02 05:29N 37°44' W 025°40'0 0.0
2018-Jun-02 04:59N 37°44' W 025°40'0 0.0
2018-Jun-02 04:29N 37°44' W 025°40'0 0.0
2018-Jun-02 03:59N 37°44' W 025°40'0 0.0
2018-Jun-02 03:29N 37°44' W 025°40'0 0.0
2018-Jun-02 02:59N 37°44' W 025°40'0 0.0
2018-Jun-02 02:29N 37°44' W 025°40'0 0.0
2018-Jun-02 01:59N 37°44' W 025°40'0 0.0
2018-Jun-02 01:29N 37°44' W 025°40'0 0.0
2018-Jun-02 00:59N 37°44' W 025°40'0 0.0
2018-Jun-02 00:29N 37°44' W 025°40'0 0.0
2018-Jun-01 23:59N 37°44' W 025°40'0 0.0
2018-Jun-01 23:29N 37°44' W 025°40'0 0.0
2018-Jun-01 22:59N 37°44' W 025°40'0 0.0
2018-Jun-01 22:29N 37°44' W 025°40'0 0.0
2018-Jun-01 21:59N 37°44' W 025°40'0 0.0
2018-Jun-01 21:29N 37°44' W 025°40'0 0.0
2018-Jun-01 20:59N 37°44' W 025°40'0 0.0
2018-Jun-01 20:29N 37°44' W 025°40'0 0.0
2018-Jun-01 19:59N 37°44' W 025°40'0 0.0
2018-Jun-01 19:29N 37°44' W 025°40'0 0.0
2018-Jun-01 18:59N 37°44' W 025°40'0 0.0
2018-Jun-01 18:29N 37°44' W 025°40'0 0.0
2018-Jun-01 17:59N 37°44' W 025°40'0 0.0
2018-Jun-01 17:29N 37°44' W 025°40'0 0.0
2018-Jun-01 16:59N 37°44' W 025°40'0 0.0
2018-Jun-01 16:29N 37°44' W 025°40'0 0.0
2018-Jun-01 15:59N 37°44' W 025°40'0 0.0
2018-Jun-01 15:29N 37°44' W 025°40'0 0.0
2018-Jun-01 14:59N 37°44' W 025°40'0 0.0
2018-Jun-01 14:29N 37°44' W 025°40'0 0.0
2018-Jun-01 13:59N 37°44' W 025°40'0 0.0
2018-Jun-01 13:29N 37°44' W 025°40'0 0.0
2018-Jun-01 12:59N 37°44' W 025°40'0 0.0
2018-Jun-01 12:29N 37°44' W 025°40'0 0.0
2018-Jun-01 11:59N 37°44' W 025°40'0 0.0
2018-Jun-01 11:29N 37°44' W 025°40'0 0.0
2018-Jun-01 10:59N 37°44' W 025°40'0 0.0
2018-Jun-01 10:29N 37°44' W 025°40'0 0.0
2018-Jun-01 10:00N 37°44' W 025°40'0 0.0
2018-Jun-01 09:29N 37°44' W 025°40'0 0.0
2018-Jun-01 08:59N 37°44' W 025°40'0 0.0
2018-Jun-01 08:29N 37°44' W 025°40'0 0.0
2018-Jun-01 07:59N 37°44' W 025°40'0 0.0
2018-Jun-01 07:29N 37°44' W 025°40'0 0.0
2018-Jun-01 06:59N 37°44' W 025°40'0 0.0
2018-Jun-01 06:29N 37°44' W 025°40'0 0.0
2018-Jun-01 05:59N 37°44' W 025°40'0 0.0
2018-Jun-01 05:29N 37°44' W 025°40'2 4.4
2018-Jun-01 05:00N 37°43' W 025°41'3 6.3
2018-Jun-01 04:30N 37°42' W 025°45'4 7.1
2018-Jun-01 03:59N 37°42' W 025°50'3 6.6
2018-Jun-01 03:30N 37°42' W 025°54'3 6.4
2018-Jun-01 03:00N 37°41' W 025°58'4 7.6
2018-Jun-01 02:30N 37°40' W 026°03'4 7.3
2018-Jun-01 02:00N 37°39' W 026°07'4 8.2
2018-Jun-01 01:30N 37°38' W 026°12'4 8.5
2018-Jun-01 01:00N 37°38' W 026°17'5 8.5
2018-Jun-01 00:26N 37°37' W 026°24'3 7.6
2018-Jun-01 00:00N 37°37' W 026°28'4 7.3
2018-May-31 23:30N 37°36' W 026°32'4 7.1
2018-May-31 23:00N 37°36' W 026°37'4 7.4
2018-May-31 22:30N 37°35' W 026°41'4 7.3
2018-May-31 22:00N 37°35' W 026°46'4 7.6
2018-May-31 21:28N 37°34' W 026°51'53 8.0
2018-May-31 14:56N 37°27' W 027°57'5 7.9
2018-May-31 14:19N 37°26' W 028°03'4 7.9
2018-May-31 13:50N 37°26' W 028°07'3 8.2
2018-May-31 13:29N 37°25' W 028°11'4 8.4
2018-May-31 12:59N 37°24' W 028°16'5 8.0
2018-May-31 12:24N 37°24' W 028°22'4 7.3
2018-May-31 11:55N 37°23' W 028°26'4 7.8
2018-May-31 11:23N 37°23' W 028°31'5 7.8
2018-May-31 10:47N 37°22' W 028°37'3 8.4
2018-May-31 10:24N 37°22' W 028°41'7 8.1
2018-May-31 09:36N 37°20' W 028°49'1 7.8
2018-May-31 09:31N 37°20' W 028°50'4 7.9
2018-May-31 09:00N 37°20' W 028°55'4 8.1
2018-May-31 08:30N 37°19' W 029°00'4 8.4
2018-May-31 08:00N 37°18' W 029°05'4 8.0
2018-May-31 07:30N 37°18' W 029°10'4 7.4
2018-May-31 07:00N 37°17' W 029°15'3 6.2
2018-May-31 06:30N 37°17' W 029°19'3 6.8
2018-May-31 06:00N 37°16' W 029°23'4 7.2
2018-May-31 05:29N 37°16' W 029°28'4 7.4
2018-May-31 05:00N 37°16' W 029°32'17 8.1
2018-May-31 02:56N 37°14' W 029°53'5 9.4
2018-May-31 02:25N 37°13' W 029°59'  
Track history (hours):
 
Tides and Currents Weather Stations Pressure Air Temp Water Temp Dewpoint Dewpoint Depression Visibility Wind Speed Wind Dir Waves Ship Positions

Celtic Spirit

Last reported at 2018-Jun-04 21:13 UTC. Time now 2018-Jun-19 23:49 UTC.
Position N 37°50' W 024°12'.
Warning: this ship's position is 15 days out of date.

Length 20 m.

Type: Pleasure craft. MMSI: 235010910.

Date/timePositionNaut miles runAvg speedWind from/ knotsBaromVisibWave heightAir tempDewpointWater temp
2018-Jun-04 21:13N 37°50' W 024°12'2 7.5
2018-Jun-04 20:58N 37°49' W 024°14'4 7.5
2018-Jun-04 20:28N 37°48' W 024°19'4 7.5
2018-Jun-04 20:00N 37°48' W 024°23'4 7.9
2018-Jun-04 19:30N 37°48' W 024°28'4 8.1
2018-Jun-04 19:00N 37°47' W 024°33'4 8.7
2018-Jun-04 18:31N 37°47' W 024°38'4 8.7
2018-Jun-04 18:00N 37°46' W 024°44'4 8.5
2018-Jun-04 17:30N 37°45' W 024°49'4 8.5
2018-Jun-04 17:00N 37°44' W 024°54'4 8.5
2018-Jun-04 16:30N 37°43' W 024°60'4 7.9
2018-Jun-04 16:00N 37°43' W 025°05'4 7.9
2018-Jun-04 15:30N 37°42' W 025°10'4 8.0
2018-Jun-04 15:00N 37°42' W 025°15'4 7.9
2018-Jun-04 14:30N 37°42' W 025°20'4 8.1
2018-Jun-04 14:00N 37°41' W 025°25'4 7.9
2018-Jun-04 13:30N 37°41' W 025°30'4 7.5
2018-Jun-04 13:01N 37°43' W 025°34'3 6.1
2018-Jun-04 12:30N 37°44' W 025°38'2 3.2
2018-Jun-04 11:59N 37°44' W 025°40'0 0.0
2018-Jun-04 11:29N 37°44' W 025°40'0 0.0
2018-Jun-04 10:59N 37°44' W 025°40'0 0.0
2018-Jun-04 10:29N 37°44' W 025°40'0 0.0
2018-Jun-04 09:59N 37°44' W 025°40'0 0.0
2018-Jun-04 09:29N 37°44' W 025°40'0 0.0
2018-Jun-04 08:59N 37°44' W 025°40'0 0.0
2018-Jun-04 08:29N 37°44' W 025°40'0 0.0
2018-Jun-04 07:59N 37°44' W 025°40'0 0.0
2018-Jun-04 07:29N 37°44' W 025°40'0 0.0
2018-Jun-04 06:59N 37°44' W 025°40'0 0.0
2018-Jun-04 06:29N 37°44' W 025°40'0 0.0
2018-Jun-04 05:53N 37°44' W 025°40'0 0.0
2018-Jun-04 05:29N 37°44' W 025°40'0 0.0
2018-Jun-04 04:59N 37°44' W 025°40'0 0.0
2018-Jun-04 04:29N 37°44' W 025°40'0 0.0
2018-Jun-04 03:59N 37°44' W 025°40'0 0.0
2018-Jun-04 03:29N 37°44' W 025°40'0 0.0
2018-Jun-04 02:59N 37°44' W 025°40'0 0.0
2018-Jun-04 02:29N 37°44' W 025°40'0 0.0
2018-Jun-04 01:59N 37°44' W 025°40'0 0.0
2018-Jun-04 01:29N 37°44' W 025°40'0 0.0
2018-Jun-04 00:59N 37°44' W 025°40'0 0.0
2018-Jun-04 00:29N 37°44' W 025°40'0 0.0
2018-Jun-03 23:59N 37°44' W 025°40'0 0.0
2018-Jun-03 23:29N 37°44' W 025°40'0 0.0
2018-Jun-03 22:59N 37°44' W 025°40'0 0.0
2018-Jun-03 22:29N 37°44' W 025°40'0 0.0
2018-Jun-03 21:59N 37°44' W 025°40'0 0.0
2018-Jun-03 21:29N 37°44' W 025°40'0 0.0
2018-Jun-03 20:59N 37°44' W 025°40'0 0.0
2018-Jun-03 20:29N 37°44' W 025°40'0 0.0
2018-Jun-03 19:59N 37°44' W 025°40'0 0.0
2018-Jun-03 19:29N 37°44' W 025°40'0 0.0
2018-Jun-03 18:59N 37°44' W 025°40'0 0.0
2018-Jun-03 18:29N 37°44' W 025°40'0 0.0
2018-Jun-03 17:59N 37°44' W 025°40'0 0.0
2018-Jun-03 17:29N 37°44' W 025°40'0 0.0
2018-Jun-03 16:59N 37°44' W 025°40'0 0.0
2018-Jun-03 16:29N 37°44' W 025°40'0 0.0
2018-Jun-03 15:59N 37°44' W 025°40'0 0.0
2018-Jun-03 15:29N 37°44' W 025°40'0 0.0
2018-Jun-03 14:59N 37°44' W 025°40'0 0.0
2018-Jun-03 14:29N 37°44' W 025°40'0 0.0
2018-Jun-03 13:59N 37°44' W 025°40'0 0.0
2018-Jun-03 13:29N 37°44' W 025°40'0 0.0
2018-Jun-03 12:59N 37°44' W 025°40'0 0.0
2018-Jun-03 12:29N 37°44' W 025°40'0 0.0
2018-Jun-03 11:59N 37°44' W 025°40'0 0.0
2018-Jun-03 11:29N 37°44' W 025°40'0 0.0
2018-Jun-03 10:59N 37°44' W 025°40'0 0.0
2018-Jun-03 10:29N 37°44' W 025°40'0 0.0
2018-Jun-03 09:59N 37°44' W 025°40'0 0.0
2018-Jun-03 09:29N 37°44' W 025°40'0 0.0
2018-Jun-03 08:59N 37°44' W 025°40'0 0.0
2018-Jun-03 08:29N 37°44' W 025°40'0 0.0
2018-Jun-03 07:59N 37°44' W 025°40'0 0.0
2018-Jun-03 07:29N 37°44' W 025°40'0 0.0
2018-Jun-03 06:59N 37°44' W 025°40'0 0.0
2018-Jun-03 06:29N 37°44' W 025°40'0 0.0
2018-Jun-03 05:59N 37°44' W 025°40'0 0.0
2018-Jun-03 05:29N 37°44' W 025°40'0 0.0
2018-Jun-03 04:56N 37°44' W 025°40'0 0.0
2018-Jun-03 04:29N 37°44' W 025°40'0 0.0
2018-Jun-03 03:59N 37°44' W 025°40'0 0.0
2018-Jun-03 03:29N 37°44' W 025°40'0 0.0
2018-Jun-03 02:59N 37°44' W 025°40'0 0.0
2018-Jun-03 02:29N 37°44' W 025°40'0 0.0
2018-Jun-03 01:59N 37°44' W 025°40'0 0.0
2018-Jun-03 01:29N 37°44' W 025°40'0 0.0
2018-Jun-03 00:59N 37°44' W 025°40'0 0.0
2018-Jun-03 00:29N 37°44' W 025°40'0 0.0
2018-Jun-02 23:59N 37°44' W 025°40'0 0.0
2018-Jun-02 23:29N 37°44' W 025°40'0 0.0
2018-Jun-02 22:59N 37°44' W 025°40'0 0.0
2018-Jun-02 22:29N 37°44' W 025°40'0 0.0
2018-Jun-02 21:59N 37°44' W 025°40'0 0.0
2018-Jun-02 21:29N 37°44' W 025°40'0 0.0
2018-Jun-02 20:59N 37°44' W 025°40'0 0.0
2018-Jun-02 20:29N 37°44' W 025°40'0 0.0
2018-Jun-02 19:59N 37°44' W 025°40'0 0.0
2018-Jun-02 19:29N 37°44' W 025°40'0 0.0
2018-Jun-02 18:59N 37°44' W 025°40'0 0.0
2018-Jun-02 18:29N 37°44' W 025°40'0 0.0
2018-Jun-02 17:59N 37°44' W 025°40'0 0.0
2018-Jun-02 17:29N 37°44' W 025°40'0 0.0
2018-Jun-02 16:59N 37°44' W 025°40'0 0.0
2018-Jun-02 16:29N 37°44' W 025°40'0 0.0
2018-Jun-02 15:59N 37°44' W 025°40'0 0.0
2018-Jun-02 15:29N 37°44' W 025°40'0 0.0
2018-Jun-02 14:59N 37°44' W 025°40'0 0.0
2018-Jun-02 14:29N 37°44' W 025°40'0 0.0
2018-Jun-02 13:59N 37°44' W 025°40'0 0.0
2018-Jun-02 13:29N 37°44' W 025°40'0 0.0
2018-Jun-02 12:59N 37°44' W 025°40'0 0.0
2018-Jun-02 12:29N 37°44' W 025°40'0 0.0
2018-Jun-02 11:59N 37°44' W 025°40'0 0.0
2018-Jun-02 11:29N 37°44' W 025°40'0 0.0
2018-Jun-02 10:59N 37°44' W 025°40'0 0.0
2018-Jun-02 10:29N 37°44' W 025°40'0 0.0
2018-Jun-02 09:59N 37°44' W 025°40'0 0.0
2018-Jun-02 09:29N 37°44' W 025°40'0 0.0
2018-Jun-02 08:59N 37°44' W 025°40'0 0.0
2018-Jun-02 08:29N 37°44' W 025°40'0 0.0
2018-Jun-02 07:59N 37°44' W 025°40'0 0.0
2018-Jun-02 07:29N 37°44' W 025°40'0 0.0
2018-Jun-02 06:59N 37°44' W 025°40'0 0.0
2018-Jun-02 06:29N 37°44' W 025°40'0 0.0
2018-Jun-02 05:59N 37°44' W 025°40'0 0.0
2018-Jun-02 05:29N 37°44' W 025°40'0 0.0
2018-Jun-02 04:59N 37°44' W 025°40'0 0.0
2018-Jun-02 04:29N 37°44' W 025°40'0 0.0
2018-Jun-02 03:59N 37°44' W 025°40'0 0.0
2018-Jun-02 03:29N 37°44' W 025°40'0 0.0
2018-Jun-02 02:59N 37°44' W 025°40'0 0.0
2018-Jun-02 02:29N 37°44' W 025°40'0 0.0
2018-Jun-02 01:59N 37°44' W 025°40'0 0.0
2018-Jun-02 01:29N 37°44' W 025°40'0 0.0
2018-Jun-02 00:59N 37°44' W 025°40'0 0.0
2018-Jun-02 00:29N 37°44' W 025°40'0 0.0
2018-Jun-01 23:59N 37°44' W 025°40'0 0.0
2018-Jun-01 23:29N 37°44' W 025°40'0 0.0
2018-Jun-01 22:59N 37°44' W 025°40'0 0.0
2018-Jun-01 22:29N 37°44' W 025°40'0 0.0
2018-Jun-01 21:59N 37°44' W 025°40'0 0.0
2018-Jun-01 21:29N 37°44' W 025°40'0 0.0
2018-Jun-01 20:59N 37°44' W 025°40'0 0.0
2018-Jun-01 20:29N 37°44' W 025°40'0 0.0
2018-Jun-01 19:59N 37°44' W 025°40'0 0.0
2018-Jun-01 19:29N 37°44' W 025°40'0 0.0
2018-Jun-01 18:59N 37°44' W 025°40'0 0.0
2018-Jun-01 18:29N 37°44' W 025°40'0 0.0
2018-Jun-01 17:59N 37°44' W 025°40'0 0.0
2018-Jun-01 17:29N 37°44' W 025°40'0 0.0
2018-Jun-01 16:59N 37°44' W 025°40'0 0.0
2018-Jun-01 16:29N 37°44' W 025°40'0 0.0
2018-Jun-01 15:59N 37°44' W 025°40'0 0.0
2018-Jun-01 15:29N 37°44' W 025°40'0 0.0
2018-Jun-01 14:59N 37°44' W 025°40'0 0.0
2018-Jun-01 14:29N 37°44' W 025°40'0 0.0
2018-Jun-01 13:59N 37°44' W 025°40'0 0.0
2018-Jun-01 13:29N 37°44' W 025°40'0 0.0
2018-Jun-01 12:59N 37°44' W 025°40'0 0.0
2018-Jun-01 12:29N 37°44' W 025°40'0 0.0
2018-Jun-01 11:59N 37°44' W 025°40'0 0.0
2018-Jun-01 11:29N 37°44' W 025°40'0 0.0
2018-Jun-01 10:59N 37°44' W 025°40'0 0.0
2018-Jun-01 10:29N 37°44' W 025°40'0 0.0
2018-Jun-01 10:00N 37°44' W 025°40'0 0.0
2018-Jun-01 09:29N 37°44' W 025°40'0 0.0
2018-Jun-01 08:59N 37°44' W 025°40'0 0.0
2018-Jun-01 08:29N 37°44' W 025°40'0 0.0
2018-Jun-01 07:59N 37°44' W 025°40'0 0.0
2018-Jun-01 07:29N 37°44' W 025°40'0 0.0
2018-Jun-01 06:59N 37°44' W 025°40'0 0.0
2018-Jun-01 06:29N 37°44' W 025°40'0 0.0
2018-Jun-01 05:59N 37°44' W 025°40'0 0.0
2018-Jun-01 05:29N 37°44' W 025°40'2 4.4
2018-Jun-01 05:00N 37°43' W 025°41'3 6.3
2018-Jun-01 04:30N 37°42' W 025°45'4 7.1
2018-Jun-01 03:59N 37°42' W 025°50'3 6.6
2018-Jun-01 03:30N 37°42' W 025°54'3 6.4
2018-Jun-01 03:00N 37°41' W 025°58'4 7.6
2018-Jun-01 02:30N 37°40' W 026°03'4 7.3
2018-Jun-01 02:00N 37°39' W 026°07'4 8.2
2018-Jun-01 01:30N 37°38' W 026°12'4 8.5
2018-Jun-01 01:00N 37°38' W 026°17'5 8.5
2018-Jun-01 00:26N 37°37' W 026°24'3 7.6
2018-Jun-01 00:00N 37°37' W 026°28'4 7.3
2018-May-31 23:30N 37°36' W 026°32'4 7.1
2018-May-31 23:00N 37°36' W 026°37'4 7.4
2018-May-31 22:30N 37°35' W 026°41'4 7.3
2018-May-31 22:00N 37°35' W 026°46'4 7.6
2018-May-31 21:28N 37°34' W 026°51'53 8.0
2018-May-31 14:56N 37°27' W 027°57'5 7.9
2018-May-31 14:19N 37°26' W 028°03'4 7.9
2018-May-31 13:50N 37°26' W 028°07'3 8.2
2018-May-31 13:29N 37°25' W 028°11'4 8.4
2018-May-31 12:59N 37°24' W 028°16'5 8.0
2018-May-31 12:24N 37°24' W 028°22'4 7.3
2018-May-31 11:55N 37°23' W 028°26'4 7.8
2018-May-31 11:23N 37°23' W 028°31'5 7.8
2018-May-31 10:47N 37°22' W 028°37'3 8.4
2018-May-31 10:24N 37°22' W 028°41'7 8.1
2018-May-31 09:36N 37°20' W 028°49'1 7.8
2018-May-31 09:31N 37°20' W 028°50'4 7.9
2018-May-31 09:00N 37°20' W 028°55'4 8.1
2018-May-31 08:30N 37°19' W 029°00'4 8.4
2018-May-31 08:00N 37°18' W 029°05'4 8.0
2018-May-31 07:30N 37°18' W 029°10'4 7.4
2018-May-31 07:00N 37°17' W 029°15'3 6.2
2018-May-31 06:30N 37°17' W 029°19'3 6.8
2018-May-31 06:00N 37°16' W 029°23'4 7.2
2018-May-31 05:29N 37°16' W 029°28'4 7.4
2018-May-31 05:00N 37°16' W 029°32'17 8.1
2018-May-31 02:56N 37°14' W 029°53'5 9.4
2018-May-31 02:25N 37°13' W 029°59'  

Dump ship's entire track history